createdAt,value
2023-09-07T00:02:05.591Z,10.20
2023-09-07T00:04:32.470Z,10.16
2023-09-07T00:07:00.765Z,10.21
2023-09-07T00:09:28.504Z,10.21
2023-09-07T00:11:55.189Z,10.20
2023-09-07T00:14:21.776Z,10.16
2023-09-07T00:16:48.536Z,10.12
2023-09-07T00:19:15.452Z,10.10
2023-09-07T00:21:42.047Z,10.11
2023-09-07T00:24:08.669Z,10.16
2023-09-07T00:26:35.330Z,10.09
2023-09-07T00:29:01.998Z,10.09
2023-09-07T00:31:28.932Z,10.08
2023-09-07T00:33:55.668Z,10.05
2023-09-07T00:36:22.276Z,10.06
2023-09-07T00:38:48.940Z,10.01
2023-09-07T00:41:15.661Z,10.00
2023-09-07T00:43:42.453Z,10.03
2023-09-07T00:46:09.626Z,9.98
2023-09-07T00:48:36.636Z,9.93
2023-09-07T00:51:03.585Z,9.87
2023-09-07T00:53:30.313Z,9.86
2023-09-07T00:55:57.861Z,9.82
2023-09-07T00:58:24.494Z,9.70
2023-09-07T01:00:51.173Z,9.70
2023-09-07T01:03:17.907Z,9.68
2023-09-07T01:05:52.743Z,9.62
2023-09-07T01:08:24.913Z,9.59
2023-09-07T01:10:51.553Z,9.55
2023-09-07T01:13:19.367Z,9.54
2023-09-07T01:15:45.971Z,9.47
2023-09-07T01:18:24.243Z,9.45
2023-09-07T01:20:59.562Z,9.36
2023-09-07T01:23:26.310Z,9.35
2023-09-07T01:25:54.599Z,9.34
2023-09-07T01:28:22.921Z,9.30
2023-09-07T01:30:49.512Z,9.27
2023-09-07T01:33:16.162Z,9.23
2023-09-07T01:35:42.875Z,9.23
2023-09-07T01:38:09.509Z,9.20
2023-09-07T01:40:36.805Z,9.17
2023-09-07T01:43:03.434Z,9.23
2023-09-07T01:45:30.051Z,9.12
2023-09-07T01:47:56.703Z,9.00
2023-09-07T01:50:23.460Z,8.99
2023-09-07T01:52:50.078Z,8.99
2023-09-07T01:55:16.768Z,8.90
2023-09-07T01:57:43.568Z,8.91
2023-09-07T02:00:10.464Z,8.88
2023-09-07T02:02:37.072Z,8.86
2023-09-07T02:05:03.901Z,8.88
2023-09-07T02:07:30.606Z,8.88
2023-09-07T02:09:57.204Z,8.87
2023-09-07T02:12:23.793Z,8.83
2023-09-07T02:14:50.407Z,8.85
2023-09-07T02:17:19.486Z,8.81
2023-09-07T02:19:46.175Z,8.75
2023-09-07T02:22:13.097Z,8.74
2023-09-07T02:24:39.720Z,8.71
2023-09-07T02:27:06.346Z,8.70
2023-09-07T02:29:32.961Z,8.68
2023-09-07T02:31:59.657Z,8.69
2023-09-07T02:34:26.214Z,8.67
2023-09-07T02:36:52.865Z,8.65
2023-09-07T02:39:19.688Z,8.68
2023-09-07T02:41:47.452Z,8.66
2023-09-07T02:44:14.096Z,8.65
2023-09-07T02:46:40.763Z,8.60
2023-09-07T02:49:07.343Z,8.62
2023-09-07T02:51:33.940Z,8.59
2023-09-07T02:54:02.737Z,8.56
2023-09-07T02:56:29.362Z,8.60
2023-09-07T02:58:55.891Z,8.59
2023-09-07T03:01:23.330Z,8.53
2023-09-07T03:03:50.398Z,8.49
2023-09-07T03:06:17.898Z,8.54
2023-09-07T03:08:44.643Z,8.54
2023-09-07T03:11:11.618Z,8.53
2023-09-07T03:13:38.673Z,8.53
2023-09-07T03:16:05.706Z,8.54
2023-09-07T03:18:32.676Z,8.57
2023-09-07T03:21:00.566Z,8.56
2023-09-07T03:23:28.133Z,8.58
2023-09-07T03:25:54.772Z,8.54
2023-09-07T03:28:21.512Z,8.58
2023-09-07T03:30:48.178Z,8.59
2023-09-07T03:33:14.993Z,8.65
2023-09-07T03:35:42.054Z,8.68
2023-09-07T03:38:08.657Z,8.68
2023-09-07T03:40:35.691Z,8.64
2023-09-07T03:43:02.315Z,8.64
2023-09-07T03:45:28.884Z,8.70
2023-09-07T03:47:55.486Z,8.78
2023-09-07T03:50:22.157Z,8.76
2023-09-07T03:52:48.775Z,8.75
2023-09-07T03:55:15.433Z,8.78
2023-09-07T03:57:42.015Z,8.81
2023-09-07T04:00:09.608Z,8.81
2023-09-07T04:02:36.495Z,8.83
2023-09-07T04:05:05.909Z,8.92
2023-09-07T04:07:32.998Z,8.95
2023-09-07T04:09:59.687Z,9.01
2023-09-07T04:12:27.083Z,9.03
2023-09-07T04:14:54.398Z,9.07
2023-09-07T04:17:21.127Z,9.06
2023-09-07T04:19:47.818Z,9.08
2023-09-07T04:22:17.898Z,9.13
2023-09-07T04:24:48.239Z,9.20
2023-09-07T04:27:14.854Z,9.11
2023-09-07T04:29:41.453Z,9.15
2023-09-07T04:32:08.017Z,9.18
2023-09-07T04:34:34.600Z,9.21
2023-09-07T04:37:01.161Z,9.27
2023-09-07T04:39:27.775Z,9.28
2023-09-07T04:41:54.377Z,9.27
2023-09-07T04:44:24.650Z,9.34
2023-09-07T04:46:53.046Z,9.46
2023-09-07T04:49:21.348Z,9.44
2023-09-07T04:51:50.834Z,9.49
2023-09-07T04:54:23.694Z,9.51
2023-09-07T04:56:56.244Z,9.55
2023-09-07T04:59:26.194Z,9.55
2023-09-07T05:01:52.810Z,9.63
2023-09-07T05:04:19.488Z,9.61
2023-09-07T05:06:46.556Z,9.61
2023-09-07T05:09:13.508Z,9.66
2023-09-07T05:11:40.130Z,9.73
2023-09-07T05:14:06.777Z,9.71
2023-09-07T05:16:33.418Z,9.81
2023-09-07T05:19:00.197Z,9.86
2023-09-07T05:21:26.869Z,9.89
2023-09-07T05:23:53.461Z,9.98
2023-09-07T05:26:25.094Z,9.96
2023-09-07T05:28:52.045Z,9.99
2023-09-07T05:31:18.721Z,10.01
2023-09-07T05:33:45.388Z,10.05
2023-09-07T05:36:11.988Z,10.10
2023-09-07T05:38:39.299Z,10.15
2023-09-07T05:41:06.143Z,10.08
2023-09-07T05:43:32.779Z,10.00
2023-09-07T05:45:59.486Z,10.04
2023-09-07T05:48:26.224Z,9.95
2023-09-07T05:50:52.862Z,10.01
2023-09-07T05:53:22.656Z,10.09
2023-09-07T05:55:49.287Z,10.21
2023-09-07T05:58:16.168Z,10.35
2023-09-07T06:00:43.146Z,10.41
2023-09-07T06:03:10.695Z,10.51
2023-09-07T06:05:38.068Z,10.57
2023-09-07T06:08:04.925Z,10.45
2023-09-07T06:10:31.575Z,10.42
2023-09-07T06:12:59.821Z,10.47
2023-09-07T06:15:28.302Z,10.55
2023-09-07T06:17:55.666Z,10.58
2023-09-07T06:20:22.560Z,10.59
2023-09-07T06:22:50.405Z,10.48
2023-09-07T06:25:17.203Z,10.61
2023-09-07T06:27:44.634Z,10.68
2023-09-07T06:30:11.426Z,10.82
2023-09-07T06:32:38.203Z,10.84
2023-09-07T06:35:05.083Z,10.85
2023-09-07T06:37:31.815Z,10.82
2023-09-07T06:39:58.467Z,10.73
2023-09-07T06:42:25.487Z,10.69
2023-09-07T06:44:53.356Z,10.70
2023-09-07T06:47:20.024Z,10.73
2023-09-07T06:49:46.613Z,10.81
2023-09-07T06:52:13.288Z,10.91
2023-09-07T06:54:40.187Z,11.01
2023-09-07T06:57:12.625Z,10.98
2023-09-07T06:59:39.265Z,11.12
2023-09-07T07:02:06.657Z,11.25
2023-09-07T07:04:33.704Z,11.28
2023-09-07T07:07:02.566Z,11.27
2023-09-07T07:09:30.847Z,11.38
2023-09-07T07:11:57.863Z,11.41
2023-09-07T07:14:24.564Z,11.46
2023-09-07T07:16:51.812Z,11.49
2023-09-07T07:19:18.527Z,11.55
2023-09-07T07:21:45.408Z,11.48
2023-09-07T07:24:12.130Z,11.47
2023-09-07T07:26:38.744Z,11.60
2023-09-07T07:29:05.339Z,11.61
2023-09-07T07:31:32.030Z,11.71
2023-09-07T07:33:59.573Z,11.81
2023-09-07T07:36:26.156Z,11.84
2023-09-07T07:38:52.807Z,11.84
2023-09-07T07:41:19.556Z,11.91
2023-09-07T07:43:46.152Z,11.95
2023-09-07T07:46:12.856Z,11.96
2023-09-07T07:48:39.553Z,12.06
2023-09-07T07:51:08.424Z,12.15
2023-09-07T07:53:36.992Z,12.07
2023-09-07T07:56:04.595Z,12.23
2023-09-07T07:58:31.321Z,12.35
2023-09-07T08:00:59.932Z,12.36
2023-09-07T08:03:26.866Z,12.48
2023-09-07T08:05:53.575Z,12.47
2023-09-07T08:08:20.146Z,12.48
2023-09-07T08:10:47.137Z,12.61
2023-09-07T08:13:14.947Z,12.66
2023-09-07T08:15:41.742Z,12.80
2023-09-07T08:18:10.180Z,12.86
2023-09-07T08:20:37.645Z,12.85
2023-09-07T08:23:08.389Z,12.84
2023-09-07T08:25:35.504Z,12.90
2023-09-07T08:28:06.296Z,12.99
2023-09-07T08:30:35.536Z,13.06
2023-09-07T08:33:03.396Z,13.16
2023-09-07T08:35:30.686Z,13.24
2023-09-07T08:37:59.364Z,13.43
2023-09-07T08:40:28.703Z,13.62
2023-09-07T08:42:55.857Z,13.61
2023-09-07T08:45:27.448Z,13.58
2023-09-07T08:47:55.686Z,13.71
2023-09-07T08:50:25.112Z,13.81
2023-09-07T08:52:54.635Z,13.87
2023-09-07T08:55:22.467Z,13.83
2023-09-07T08:57:49.220Z,13.97
2023-09-07T09:00:17.934Z,14.02
2023-09-07T09:05:20.491Z,13.78
2023-09-07T09:07:47.118Z,13.84
2023-09-07T09:10:13.710Z,13.93
2023-09-07T09:12:47.308Z,14.13
2023-09-07T09:15:14.065Z,14.25
2023-09-07T09:17:40.758Z,14.27
2023-09-07T09:20:20.639Z,14.26
2023-09-07T09:22:47.296Z,14.23
2023-09-07T09:25:13.967Z,14.45
2023-09-07T09:27:40.565Z,14.65
2023-09-07T09:30:07.603Z,14.67
2023-09-07T09:32:34.241Z,14.60
2023-09-07T09:35:01.878Z,14.47
2023-09-07T09:37:30.022Z,14.47
2023-09-07T09:39:57.008Z,14.46
2023-09-07T09:42:24.638Z,14.56
2023-09-07T09:44:51.896Z,14.58
2023-09-07T09:47:19.073Z,14.57
2023-09-07T09:49:46.668Z,14.61
2023-09-07T09:52:14.221Z,14.61
2023-09-07T09:54:41.122Z,14.45
2023-09-07T09:57:07.670Z,14.58
2023-09-07T09:59:34.981Z,14.64
2023-09-07T10:02:02.738Z,14.77
2023-09-07T10:04:30.471Z,14.91
2023-09-07T10:06:59.444Z,14.97
2023-09-07T10:09:30.381Z,15.05
2023-09-07T10:12:00.723Z,15.10
2023-09-07T10:14:27.465Z,15.08
2023-09-07T10:16:56.872Z,15.08
2023-09-07T10:19:24.963Z,15.14
2023-09-07T10:21:52.246Z,15.31
2023-09-07T10:24:27.001Z,15.82
2023-09-07T10:26:57.548Z,16.08
2023-09-07T10:29:24.742Z,16.00
2023-09-07T10:31:54.795Z,15.83
2023-09-07T10:34:23.295Z,15.62
2023-09-07T10:36:56.737Z,15.50
2023-09-07T10:39:23.318Z,15.60
2023-09-07T10:41:49.892Z,15.90
2023-09-07T10:44:16.595Z,16.26
2023-09-07T10:46:46.201Z,17.03
2023-09-07T10:49:13.175Z,17.74
2023-09-07T10:51:44.628Z,18.12
2023-09-07T10:54:24.220Z,18.56
2023-09-07T10:56:51.457Z,19.01
2023-09-07T10:59:18.468Z,19.43
2023-09-07T11:01:45.542Z,19.77
2023-09-07T11:04:12.694Z,20.06
2023-09-07T11:06:40.736Z,20.23
2023-09-07T11:09:09.797Z,20.56
2023-09-07T11:11:37.428Z,20.59
2023-09-07T11:14:05.311Z,19.98
2023-09-07T11:16:36.279Z,20.09
2023-09-07T11:19:06.440Z,19.50
2023-09-07T11:21:35.364Z,19.77
2023-09-07T11:24:02.518Z,20.25
2023-09-07T11:26:29.088Z,20.54
2023-09-07T11:28:57.669Z,20.96
2023-09-07T11:31:24.397Z,21.45
2023-09-07T11:33:51.183Z,21.76
2023-09-07T11:36:17.853Z,21.48
2023-09-07T11:38:45.365Z,20.05
2023-09-07T11:41:11.958Z,19.81
2023-09-07T11:43:40.912Z,19.71
2023-09-07T11:46:09.240Z,20.15
2023-09-07T11:48:37.281Z,20.34
2023-09-07T11:51:03.971Z,19.83
2023-09-07T11:53:31.370Z,19.12
2023-09-07T11:55:59.088Z,19.32
2023-09-07T11:58:30.145Z,18.49
2023-09-07T12:00:57.468Z,18.29
2023-09-07T12:03:24.120Z,17.78
2023-09-07T12:05:50.798Z,17.89
2023-09-07T12:08:17.716Z,18.15
2023-09-07T12:10:44.362Z,18.13
2023-09-07T12:13:11.013Z,17.40
2023-09-07T12:15:37.704Z,17.25
2023-09-07T12:18:04.788Z,18.15
2023-09-07T12:20:31.528Z,18.93
2023-09-07T12:22:58.307Z,19.07
2023-09-07T12:25:26.337Z,19.52
2023-09-07T12:27:54.723Z,19.52
2023-09-07T12:30:23.435Z,19.46
2023-09-07T12:32:51.532Z,18.81
2023-09-07T12:35:21.105Z,18.19
2023-09-07T12:37:48.121Z,17.55
2023-09-07T12:40:14.866Z,17.32
2023-09-07T12:42:42.491Z,16.80
2023-09-07T12:45:12.909Z,16.73
2023-09-07T12:47:42.554Z,16.61
2023-09-07T12:50:09.553Z,17.00
2023-09-07T12:52:39.766Z,17.94
2023-09-07T12:55:07.132Z,18.76
2023-09-07T12:57:33.894Z,19.43
2023-09-07T13:00:00.951Z,19.88
2023-09-07T13:02:27.808Z,20.17
2023-09-07T13:04:57.243Z,20.45
2023-09-07T13:07:23.945Z,20.38
2023-09-07T13:09:51.033Z,20.75
2023-09-07T13:12:17.743Z,21.10
2023-09-07T13:14:44.374Z,21.24
2023-09-07T13:17:17.499Z,21.51
2023-09-07T13:19:45.029Z,21.82
2023-09-07T13:22:11.804Z,21.45
2023-09-07T13:24:38.484Z,20.56
2023-09-07T13:27:05.300Z,19.45
2023-09-07T13:29:32.828Z,19.02
2023-09-07T13:31:59.890Z,19.58
2023-09-07T13:34:26.992Z,20.33
2023-09-07T13:36:54.508Z,20.78
2023-09-07T13:39:21.261Z,20.95
2023-09-07T13:41:47.832Z,20.78
2023-09-07T13:44:18.700Z,20.60
2023-09-07T13:46:45.777Z,20.90
2023-09-07T13:49:13.392Z,21.22
2023-09-07T13:51:41.204Z,20.84
2023-09-07T13:54:08.838Z,20.33
2023-09-07T13:56:35.802Z,19.71
2023-09-07T13:59:02.409Z,18.91
2023-09-07T14:01:29.042Z,18.54
2023-09-07T14:03:55.957Z,18.42
2023-09-07T14:06:25.218Z,18.85
2023-09-07T14:08:52.484Z,18.78
2023-09-07T14:11:19.190Z,18.40
2023-09-07T14:13:45.980Z,17.81
2023-09-07T14:16:12.745Z,17.47
2023-09-07T14:18:39.373Z,17.51
2023-09-07T14:21:06.031Z,17.92
2023-09-07T14:23:33.013Z,18.61
2023-09-07T14:26:00.249Z,18.73
2023-09-07T14:28:27.192Z,18.95
2023-09-07T14:30:55.482Z,19.37
2023-09-07T14:33:22.292Z,18.66
2023-09-07T14:35:52.939Z,18.06
2023-09-07T14:38:20.219Z,17.64
2023-09-07T14:40:47.022Z,17.38
2023-09-07T14:43:14.757Z,17.13
2023-09-07T14:45:41.665Z,16.91
2023-09-07T14:48:09.097Z,16.68
2023-09-07T14:50:35.928Z,16.80
2023-09-07T14:53:02.662Z,16.93
2023-09-07T14:55:29.519Z,16.69
2023-09-07T14:57:56.291Z,16.20
2023-09-07T15:00:23.851Z,16.03
2023-09-07T15:02:50.609Z,15.95
2023-09-07T15:05:17.381Z,15.82
2023-09-07T15:07:44.040Z,15.84
2023-09-07T15:10:10.690Z,15.70
2023-09-07T15:12:38.150Z,15.57
2023-09-07T15:15:05.061Z,15.54
2023-09-07T15:17:31.699Z,15.37
2023-09-07T15:19:58.406Z,15.28
2023-09-07T15:22:25.386Z,15.23
2023-09-07T15:24:51.979Z,15.13
2023-09-07T15:27:18.567Z,15.12
2023-09-07T15:29:45.239Z,15.06
2023-09-07T15:32:11.997Z,15.01
2023-09-07T15:34:38.820Z,14.98
2023-09-07T15:37:05.788Z,14.99
2023-09-07T15:39:32.874Z,14.91
2023-09-07T15:41:59.461Z,14.91
2023-09-07T15:44:26.130Z,14.85
2023-09-07T15:46:52.725Z,14.84
2023-09-07T15:49:19.803Z,14.78
2023-09-07T15:51:47.031Z,14.74
2023-09-07T15:54:13.648Z,14.65
2023-09-07T15:56:41.221Z,14.62
2023-09-07T15:59:07.956Z,14.54
2023-09-07T16:01:34.689Z,14.49
2023-09-07T16:04:01.349Z,14.47
2023-09-07T16:06:28.666Z,14.49
2023-09-07T16:08:56.910Z,14.41
2023-09-07T16:11:23.579Z,14.30
2023-09-07T16:13:50.355Z,14.29
2023-09-07T16:16:17.101Z,14.29
2023-09-07T16:18:43.829Z,14.30
2023-09-07T16:21:15.823Z,14.26
2023-09-07T16:23:46.671Z,14.17
2023-09-07T16:26:14.347Z,14.14
2023-09-07T16:28:41.085Z,14.09
2023-09-07T16:31:07.814Z,14.15
2023-09-07T16:33:34.575Z,14.13
2023-09-07T16:36:01.542Z,14.08
2023-09-07T16:38:28.398Z,13.98
2023-09-07T16:40:55.145Z,13.96
2023-09-07T16:43:23.253Z,14.02
2023-09-07T16:45:59.477Z,13.93
2023-09-07T16:48:26.686Z,13.84
2023-09-07T16:50:53.506Z,13.80
2023-09-07T16:53:20.332Z,13.80
2023-09-07T16:55:47.078Z,13.81
2023-09-07T16:58:13.774Z,13.82
2023-09-07T17:00:40.487Z,13.80
2023-09-07T17:03:10.297Z,13.78
2023-09-07T17:05:37.464Z,13.80
2023-09-07T17:08:04.912Z,13.73
2023-09-07T17:10:31.687Z,13.67
2023-09-07T17:12:58.292Z,13.59
2023-09-07T17:15:27.680Z,13.48
2023-09-07T17:17:54.950Z,13.55
2023-09-07T17:20:21.697Z,13.45
2023-09-07T17:22:48.454Z,13.46
2023-09-07T17:25:16.522Z,13.44
2023-09-07T17:27:43.710Z,13.42
2023-09-07T17:30:11.998Z,13.45
2023-09-07T17:32:39.129Z,13.44
2023-09-07T17:35:06.510Z,13.38
2023-09-07T17:37:33.217Z,13.34
2023-09-07T17:40:02.339Z,13.24
2023-09-07T17:42:31.099Z,13.26
2023-09-07T17:44:58.055Z,13.24
2023-09-07T17:47:24.867Z,13.27
2023-09-07T17:49:51.538Z,13.26
2023-09-07T17:52:18.333Z,13.27
2023-09-07T17:54:44.993Z,13.23
2023-09-07T17:57:11.824Z,13.25
2023-09-07T17:59:38.551Z,13.27
2023-09-07T18:02:16.980Z,13.27
2023-09-07T18:04:43.602Z,13.22
2023-09-07T18:07:10.249Z,13.22
2023-09-07T18:09:36.911Z,13.12
2023-09-07T18:12:03.671Z,13.07
2023-09-07T18:14:31.204Z,13.11
2023-09-07T18:16:57.872Z,13.10
2023-09-07T18:19:24.516Z,13.10
2023-09-07T18:21:51.124Z,13.05
2023-09-07T18:24:17.808Z,13.11
2023-09-07T18:26:47.780Z,13.15
2023-09-07T18:29:14.980Z,13.14
2023-09-07T18:31:41.768Z,13.13
2023-09-07T18:34:10.490Z,13.11
2023-09-07T18:36:38.126Z,13.10
2023-09-07T18:39:04.937Z,13.07
2023-09-07T18:41:31.746Z,13.15
2023-09-07T18:43:58.417Z,13.06
2023-09-07T18:46:25.296Z,13.02
2023-09-07T18:48:52.114Z,13.06
2023-09-07T18:51:20.672Z,13.05
2023-09-07T18:53:47.287Z,13.07
2023-09-07T18:56:13.887Z,13.08
2023-09-07T18:58:40.551Z,13.09
2023-09-07T19:01:17.172Z,13.12
2023-09-07T19:03:48.135Z,13.10
2023-09-07T19:06:15.735Z,13.04
2023-09-07T19:08:43.451Z,13.00
2023-09-07T19:11:10.332Z,12.98
2023-09-07T19:13:37.109Z,13.02
2023-09-07T19:16:04.415Z,12.91
2023-09-07T19:18:34.530Z,12.95
2023-09-07T19:21:12.885Z,12.96
2023-09-07T19:23:47.999Z,12.91
2023-09-07T19:26:31.591Z,12.89
2023-09-07T19:28:59.113Z,12.90
2023-09-07T19:31:25.855Z,12.95
2023-09-07T19:33:56.842Z,12.94
2023-09-07T19:36:23.635Z,12.93
2023-09-07T19:38:52.546Z,12.96
2023-09-07T19:41:19.220Z,12.90
2023-09-07T19:43:46.046Z,12.95
2023-09-07T19:46:12.886Z,12.89
2023-09-07T19:48:39.850Z,12.89
2023-09-07T19:51:10.238Z,12.91
2023-09-07T19:53:36.916Z,12.83
2023-09-07T19:56:07.391Z,12.86
2023-09-07T19:58:34.173Z,12.88
2023-09-07T20:01:01.320Z,12.83
2023-09-07T20:03:28.137Z,12.86
2023-09-07T20:05:55.004Z,12.88
2023-09-07T20:08:21.644Z,12.92
2023-09-07T20:10:48.226Z,12.84
2023-09-07T20:13:16.469Z,12.86
2023-09-07T20:15:43.212Z,12.79
2023-09-07T20:18:09.945Z,12.71
2023-09-07T20:20:36.784Z,12.62
2023-09-07T20:23:03.427Z,12.60
2023-09-07T20:25:30.065Z,12.56
2023-09-07T20:27:56.679Z,12.54
2023-09-07T20:30:23.295Z,12.53
2023-09-07T20:32:49.890Z,12.56
2023-09-07T20:35:16.678Z,12.49
2023-09-07T20:37:43.362Z,12.46
2023-09-07T20:40:13.708Z,12.51
2023-09-07T20:42:40.577Z,12.47
2023-09-07T20:45:07.441Z,12.49
2023-09-07T20:47:34.220Z,12.44
2023-09-07T20:50:00.825Z,12.43
2023-09-07T20:52:27.603Z,12.37
2023-09-07T20:54:56.795Z,12.32
2023-09-07T20:57:23.645Z,12.34
2023-09-07T20:59:50.295Z,12.37
2023-09-07T21:02:16.930Z,12.26
2023-09-07T21:04:43.541Z,12.34
2023-09-07T21:07:10.311Z,12.27
2023-09-07T21:09:36.972Z,12.22
2023-09-07T21:12:04.157Z,12.18
2023-09-07T21:14:30.794Z,12.11
2023-09-07T21:16:57.601Z,12.13
2023-09-07T21:19:24.291Z,12.13
2023-09-07T21:21:51.155Z,12.17
2023-09-07T21:24:17.798Z,12.13
2023-09-07T21:26:44.471Z,12.09
2023-09-07T21:29:11.060Z,12.11
2023-09-07T21:31:37.764Z,12.07
2023-09-07T21:34:04.400Z,12.05
2023-09-07T21:36:31.042Z,12.05
2023-09-07T21:38:57.674Z,12.05
2023-09-07T21:41:25.630Z,11.98
2023-09-07T21:43:55.032Z,11.96
2023-09-07T21:46:22.186Z,11.92
2023-09-07T21:48:48.895Z,11.95
2023-09-07T21:51:15.532Z,12.00
2023-09-07T21:53:42.113Z,12.05
2023-09-07T21:56:09.207Z,12.01
2023-09-07T21:58:36.153Z,12.08
2023-09-07T22:01:02.951Z,11.98
2023-09-07T22:03:29.630Z,11.99
2023-09-07T22:05:56.396Z,11.98
2023-09-07T22:08:23.046Z,11.93
2023-09-07T22:10:49.701Z,11.85
2023-09-07T22:13:16.365Z,11.77
2023-09-07T22:15:43.172Z,11.79
2023-09-07T22:18:10.960Z,11.70
2023-09-07T22:20:37.878Z,11.68
2023-09-07T22:23:05.813Z,11.65
2023-09-07T22:25:33.384Z,11.58
2023-09-07T22:28:00.169Z,11.55
2023-09-07T22:30:26.907Z,11.55
2023-09-07T22:32:53.826Z,11.55
2023-09-07T22:35:20.610Z,11.56
2023-09-07T22:37:48.004Z,11.58
2023-09-07T22:40:17.550Z,11.52
2023-09-07T22:42:44.858Z,11.52
2023-09-07T22:45:14.613Z,11.47
2023-09-07T22:47:41.387Z,11.58
2023-09-07T22:50:08.590Z,11.55
2023-09-07T22:52:35.754Z,11.50
2023-09-07T22:55:06.927Z,11.50
2023-09-07T22:57:34.322Z,11.48
2023-09-07T23:00:01.226Z,11.48
2023-09-07T23:02:27.982Z,11.53
2023-09-07T23:04:55.147Z,11.53
2023-09-07T23:07:24.866Z,11.48
2023-09-07T23:09:51.528Z,11.45
2023-09-07T23:12:18.216Z,11.45
2023-09-07T23:14:44.867Z,11.41
2023-09-07T23:17:11.560Z,11.40
2023-09-07T23:19:38.346Z,11.36
2023-09-07T23:22:05.006Z,11.42
2023-09-07T23:24:31.636Z,11.41
2023-09-07T23:26:58.585Z,11.39
2023-09-07T23:29:25.475Z,11.38
2023-09-07T23:31:52.641Z,11.39
2023-09-07T23:34:19.278Z,11.38
2023-09-07T23:36:45.972Z,11.38
2023-09-07T23:39:12.601Z,11.46
2023-09-07T23:41:39.252Z,11.38
2023-09-07T23:44:05.983Z,11.41
2023-09-07T23:46:32.743Z,11.44
2023-09-07T23:48:59.544Z,11.44
2023-09-07T23:51:26.239Z,11.44
2023-09-07T23:53:52.812Z,11.38
2023-09-07T23:56:19.460Z,11.38
2023-09-07T23:58:46.006Z,11.36
